createdAt,value
2023-05-23T00:01:58.869Z,1.50
2023-05-23T00:04:27.435Z,2.00
2023-05-23T00:06:54.907Z,1.60
2023-05-23T00:09:22.486Z,2.00
2023-05-23T00:11:49.752Z,2.10
2023-05-23T00:14:17.100Z,2.00
2023-05-23T00:16:45.333Z,2.00
2023-05-23T00:19:15.117Z,2.40
2023-05-23T00:21:51.001Z,2.00
2023-05-23T00:24:20.469Z,2.20
2023-05-23T00:26:47.912Z,2.00
2023-05-23T00:29:18.496Z,2.60
2023-05-23T00:31:46.965Z,2.40
2023-05-23T00:34:18.252Z,1.90
2023-05-23T00:36:48.145Z,2.10
2023-05-23T00:39:19.951Z,1.70
2023-05-23T00:41:51.790Z,2.30
2023-05-23T00:44:21.386Z,2.00
2023-05-23T00:46:52.351Z,1.40
2023-05-23T00:49:23.020Z,1.80
2023-05-23T00:51:51.698Z,1.80
2023-05-23T00:54:23.235Z,2.30
2023-05-23T00:56:50.617Z,1.80
2023-05-23T00:59:17.999Z,1.70
2023-05-23T01:01:47.343Z,1.70
2023-05-23T01:04:16.892Z,1.70
2023-05-23T01:06:46.721Z,2.20
2023-05-23T01:09:15.904Z,1.60
2023-05-23T01:11:56.495Z,1.60
2023-05-23T01:14:35.383Z,2.00
2023-05-23T01:17:07.891Z,1.80
2023-05-23T01:19:52.312Z,2.20
2023-05-23T01:22:42.076Z,1.50
2023-05-23T01:25:38.703Z,1.60
2023-05-23T01:28:06.307Z,1.90
2023-05-23T01:30:36.201Z,1.60
2023-05-23T01:33:03.674Z,1.20
2023-05-23T01:35:31.093Z,1.80
2023-05-23T01:37:58.491Z,1.40
2023-05-23T01:40:26.162Z,1.70
2023-05-23T01:42:55.377Z,1.50
2023-05-23T01:45:22.722Z,2.40
2023-05-23T01:47:50.511Z,1.50
2023-05-23T01:50:18.073Z,1.80
2023-05-23T01:52:46.948Z,1.60
2023-05-23T01:55:15.814Z,1.70
2023-05-23T01:57:43.430Z,2.00
2023-05-23T02:00:12.467Z,2.00
2023-05-23T02:02:42.733Z,2.10
2023-05-23T02:05:11.145Z,2.60
2023-05-23T02:07:39.928Z,2.10
2023-05-23T02:10:10.441Z,1.70
2023-05-23T02:12:38.701Z,1.70
2023-05-23T02:15:07.663Z,1.90
2023-05-23T02:17:35.059Z,1.40
2023-05-23T02:20:02.426Z,1.60
2023-05-23T02:22:29.783Z,1.50
2023-05-23T02:24:57.108Z,1.70
2023-05-23T02:27:24.493Z,1.30
2023-05-23T02:29:52.115Z,1.80
2023-05-23T02:32:19.465Z,1.30
2023-05-23T02:34:46.847Z,1.80
2023-05-23T02:37:14.878Z,1.40
2023-05-23T02:39:43.411Z,1.50
2023-05-23T02:42:10.849Z,1.30
2023-05-23T02:44:38.369Z,1.60
2023-05-23T02:47:05.745Z,1.30
2023-05-23T02:49:34.310Z,1.50
2023-05-23T02:52:01.657Z,1.40
2023-05-23T02:54:29.067Z,1.80
2023-05-23T02:56:56.880Z,1.80
2023-05-23T02:59:24.283Z,1.60
2023-05-23T03:01:51.658Z,1.90
2023-05-23T03:04:19.071Z,1.90
2023-05-23T03:06:47.797Z,1.40
2023-05-23T03:09:16.967Z,1.30
2023-05-23T03:11:44.371Z,1.40
2023-05-23T03:14:12.299Z,1.40
2023-05-23T03:16:40.621Z,1.50
2023-05-23T03:19:08.721Z,1.50
2023-05-23T03:21:36.385Z,1.70
2023-05-23T03:24:03.904Z,1.60
2023-05-23T03:26:31.357Z,1.40
2023-05-23T03:28:58.820Z,1.40
2023-05-23T03:31:26.417Z,1.20
2023-05-23T03:33:54.071Z,1.80
2023-05-23T03:36:22.066Z,1.50
2023-05-23T03:38:49.521Z,1.20
2023-05-23T03:41:17.295Z,1.30
2023-05-23T03:43:45.133Z,1.50
2023-05-23T03:46:12.912Z,1.20
2023-05-23T03:48:42.227Z,1.00
2023-05-23T03:51:09.874Z,1.10
2023-05-23T03:53:37.486Z,1.20
2023-05-23T03:56:05.587Z,1.10
2023-05-23T03:58:33.078Z,1.10
2023-05-23T04:01:03.253Z,1.00
2023-05-23T04:03:32.988Z,0.90
2023-05-23T04:06:02.044Z,1.50
2023-05-23T04:08:30.395Z,1.20
2023-05-23T04:10:57.739Z,0.90
2023-05-23T04:13:27.367Z,0.80
2023-05-23T04:15:56.543Z,0.90
2023-05-23T04:18:25.872Z,0.90
2023-05-23T04:20:53.409Z,1.10
2023-05-23T04:23:20.932Z,1.00
2023-05-23T04:25:51.771Z,1.00
2023-05-23T04:28:27.666Z,1.00
2023-05-23T04:30:56.610Z,0.90
2023-05-23T04:33:28.316Z,1.30
2023-05-23T04:35:56.398Z,1.10
2023-05-23T04:38:25.205Z,1.00
2023-05-23T04:40:54.175Z,0.90
2023-05-23T04:43:48.806Z,1.20
2023-05-23T04:46:28.989Z,1.00
2023-05-23T04:49:10.178Z,1.00
2023-05-23T04:51:38.391Z,1.30
2023-05-23T04:54:44.661Z,1.20
2023-05-23T04:57:12.700Z,1.00
2023-05-23T04:59:40.532Z,0.80
2023-05-23T05:02:09.468Z,1.00
2023-05-23T05:04:38.442Z,0.80
2023-05-23T05:07:06.313Z,1.10
2023-05-23T05:09:34.459Z,1.10
2023-05-23T05:12:02.086Z,1.10
2023-05-23T05:14:30.151Z,1.00
2023-05-23T05:16:57.963Z,0.90
2023-05-23T05:19:30.567Z,0.90
2023-05-23T05:21:58.094Z,0.90
2023-05-23T05:24:25.677Z,0.90
2023-05-23T05:26:53.884Z,0.90
2023-05-23T05:29:21.439Z,0.90
2023-05-23T05:31:48.774Z,1.00
2023-05-23T05:34:16.243Z,1.00
2023-05-23T05:36:48.347Z,1.00
2023-05-23T05:39:17.768Z,1.10
2023-05-23T05:41:45.049Z,0.80
2023-05-23T05:44:12.333Z,0.90
2023-05-23T05:46:39.887Z,1.10
2023-05-23T05:49:08.207Z,0.80
2023-05-23T05:51:36.836Z,0.80
2023-05-23T05:54:04.440Z,1.20
2023-05-23T05:56:32.227Z,1.00
2023-05-23T05:58:59.531Z,1.00
2023-05-23T06:01:27.795Z,0.90
2023-05-23T06:03:55.304Z,1.00
2023-05-23T06:06:23.220Z,0.80
2023-05-23T06:08:51.173Z,1.10
2023-05-23T06:11:18.496Z,0.90
2023-05-23T06:13:45.885Z,1.00
2023-05-23T06:16:13.406Z,1.10
2023-05-23T06:18:41.516Z,1.00
2023-05-23T06:21:09.533Z,1.00
2023-05-23T06:23:36.939Z,1.10
2023-05-23T06:26:08.122Z,1.10
2023-05-23T06:28:35.523Z,1.40
2023-05-23T06:31:02.983Z,1.00
2023-05-23T06:33:31.522Z,1.60
2023-05-23T06:35:59.045Z,1.50
2023-05-23T06:38:27.276Z,1.60
2023-05-23T06:40:54.673Z,1.30
2023-05-23T06:43:22.177Z,1.30
2023-05-23T06:45:54.077Z,1.20
2023-05-23T06:48:21.542Z,1.10
2023-05-23T06:50:49.590Z,1.50
2023-05-23T06:53:19.197Z,1.30
2023-05-23T06:55:47.370Z,1.10
2023-05-23T06:58:16.818Z,1.30
2023-05-23T07:00:44.429Z,1.00
2023-05-23T07:03:43.352Z,3.00
2023-05-23T07:06:12.030Z,1.70
2023-05-23T07:08:40.010Z,1.50
2023-05-23T07:11:07.570Z,1.30
2023-05-23T07:13:38.804Z,1.10
2023-05-23T07:16:06.241Z,2.10
2023-05-23T07:18:37.746Z,1.40
2023-05-23T07:21:06.099Z,1.00
2023-05-23T07:23:34.598Z,0.90
2023-05-23T07:26:03.337Z,0.70
2023-05-23T07:28:41.834Z,0.70
2023-05-23T07:31:10.029Z,0.50
2023-05-23T07:33:38.125Z,0.70
2023-05-23T07:36:06.195Z,1.00
2023-05-23T07:38:33.747Z,0.50
2023-05-23T07:41:10.730Z,0.70
2023-05-23T07:43:39.754Z,0.50
2023-05-23T07:46:07.366Z,4.10
2023-05-23T07:48:34.760Z,2.70
2023-05-23T07:51:04.108Z,0.70
2023-05-23T07:53:31.757Z,0.50
2023-05-23T07:55:59.333Z,0.80
2023-05-23T07:58:29.192Z,0.70
2023-05-23T08:00:58.075Z,0.70
2023-05-23T08:03:51.870Z,0.50
2023-05-23T08:06:24.050Z,0.40
2023-05-23T08:08:51.837Z,0.50
2023-05-23T08:11:19.145Z,0.50
2023-05-23T08:13:49.807Z,0.40
2023-05-23T08:16:38.003Z,0.40
2023-05-23T08:19:08.757Z,0.50
2023-05-23T08:21:36.465Z,0.50
2023-05-23T08:24:04.268Z,0.50
2023-05-23T08:26:34.955Z,0.50
2023-05-23T08:29:03.128Z,0.50
2023-05-23T08:31:31.589Z,0.60
2023-05-23T08:33:59.324Z,0.50
2023-05-23T08:36:26.830Z,0.50
2023-05-23T08:38:54.316Z,0.50
2023-05-23T08:41:34.139Z,0.60
2023-05-23T08:44:04.417Z,0.60
2023-05-23T08:46:38.814Z,0.60
2023-05-23T08:49:06.262Z,0.60
2023-05-23T08:51:33.802Z,0.50
2023-05-23T08:54:02.634Z,0.50
2023-05-23T08:56:30.284Z,0.50
2023-05-23T08:58:58.054Z,0.60
2023-05-23T09:01:25.642Z,0.50
2023-05-23T09:03:54.562Z,0.60
2023-05-23T09:06:28.353Z,0.50
2023-05-23T09:08:57.272Z,0.60
2023-05-23T09:11:25.263Z,0.50
2023-05-23T09:13:53.084Z,0.50
2023-05-23T09:16:21.259Z,0.50
2023-05-23T09:21:24.295Z,0.50
2023-05-23T09:26:26.017Z,0.60
2023-05-23T09:28:53.311Z,0.50
2023-05-23T09:31:25.519Z,0.40
2023-05-23T09:33:55.943Z,0.50
2023-05-23T09:36:23.279Z,0.40
2023-05-23T09:38:52.729Z,0.40
2023-05-23T09:41:20.778Z,0.50
2023-05-23T09:43:51.742Z,0.50
2023-05-23T09:46:20.043Z,0.50
2023-05-23T09:48:48.472Z,0.50
2023-05-23T09:51:16.288Z,0.50
2023-05-23T09:53:43.577Z,0.40
2023-05-23T09:56:11.639Z,0.30
2023-05-23T09:58:38.998Z,0.90
2023-05-23T10:01:07.604Z,0.50
2023-05-23T10:03:44.294Z,0.40
2023-05-23T10:06:17.094Z,0.50
2023-05-23T10:08:44.963Z,0.50
2023-05-23T10:11:16.653Z,0.30
2023-05-23T10:13:45.247Z,0.40
2023-05-23T10:16:16.479Z,0.50
2023-05-23T10:18:44.579Z,0.40
2023-05-23T10:21:13.153Z,0.40
2023-05-23T10:23:40.926Z,0.40
2023-05-23T10:26:08.353Z,0.50
2023-05-23T10:28:35.667Z,0.50
2023-05-23T10:31:03.006Z,0.50
2023-05-23T10:35:20.989Z,0.40
2023-05-23T10:38:01.030Z,0.50
2023-05-23T10:40:42.655Z,0.50
2023-05-23T10:43:20.893Z,0.40
2023-05-23T10:45:50.922Z,0.50
2023-05-23T10:48:41.046Z,0.50
2023-05-23T10:51:09.326Z,0.40
2023-05-23T10:53:38.292Z,0.40
2023-05-23T10:56:07.421Z,0.40
2023-05-23T10:58:35.920Z,0.40
2023-05-23T11:01:06.618Z,0.40
2023-05-23T11:03:46.353Z,0.50
2023-05-23T11:06:35.925Z,0.50
2023-05-23T11:09:10.429Z,0.50
2023-05-23T11:12:00.133Z,0.50
2023-05-23T11:14:33.771Z,0.40
2023-05-23T11:17:01.877Z,0.60
2023-05-23T11:19:29.881Z,0.50
2023-05-23T11:22:02.232Z,0.50
2023-05-23T11:24:52.470Z,0.80
2023-05-23T11:27:37.852Z,0.50
2023-05-23T11:30:14.860Z,0.50
2023-05-23T11:32:51.976Z,0.50
2023-05-23T11:35:19.425Z,0.50
2023-05-23T11:37:47.181Z,0.50
2023-05-23T11:40:43.694Z,0.70
2023-05-23T11:43:16.836Z,0.60
2023-05-23T11:45:46.852Z,0.50
2023-05-23T11:48:16.437Z,0.50
2023-05-23T11:50:44.533Z,0.60
2023-05-23T11:53:12.465Z,0.50
2023-05-23T11:55:41.248Z,0.60
2023-05-23T11:58:09.289Z,0.50
2023-05-23T12:00:43.762Z,0.70
2023-05-23T12:03:11.931Z,0.50
2023-05-23T12:05:39.377Z,0.40
2023-05-23T12:08:06.884Z,0.40
2023-05-23T12:10:34.389Z,0.50
2023-05-23T12:13:01.803Z,0.40
2023-05-23T12:15:29.930Z,0.50
2023-05-23T12:17:58.054Z,0.50
2023-05-23T12:20:26.682Z,0.60
2023-05-23T12:22:54.746Z,0.50
2023-05-23T12:25:23.465Z,0.60
2023-05-23T12:27:50.810Z,0.50
2023-05-23T12:30:18.369Z,0.50
2023-05-23T12:32:46.810Z,0.50
2023-05-23T12:35:15.191Z,0.50
2023-05-23T12:37:46.651Z,0.60
2023-05-23T12:40:14.619Z,0.60
2023-05-23T12:42:54.555Z,0.50
2023-05-23T12:45:36.582Z,0.50
2023-05-23T12:48:05.100Z,0.50
2023-05-23T12:50:32.652Z,0.60
2023-05-23T12:53:00.173Z,0.50
2023-05-23T12:55:27.584Z,0.80
2023-05-23T12:57:54.926Z,0.50
2023-05-23T13:00:22.281Z,0.40
2023-05-23T13:02:51.701Z,0.50
2023-05-23T13:05:19.231Z,0.70
2023-05-23T13:07:46.557Z,0.60
2023-05-23T13:10:14.041Z,0.50
2023-05-23T13:12:42.429Z,0.60
2023-05-23T13:15:11.021Z,0.60
2023-05-23T13:17:38.409Z,0.60
2023-05-23T13:20:07.700Z,0.70
2023-05-23T13:22:35.372Z,0.60
2023-05-23T13:25:02.648Z,0.60
2023-05-23T13:27:30.335Z,0.50
2023-05-23T13:29:57.590Z,0.50
2023-05-23T13:32:24.876Z,0.60
2023-05-23T13:34:52.520Z,0.60
2023-05-23T13:37:19.926Z,0.50
2023-05-23T13:39:47.219Z,0.50
2023-05-23T13:42:14.548Z,0.70
2023-05-23T13:44:41.832Z,0.70
2023-05-23T13:47:13.475Z,0.50
2023-05-23T13:49:42.314Z,0.50
2023-05-23T13:52:09.712Z,0.40
2023-05-23T13:54:36.957Z,0.50
2023-05-23T13:57:04.934Z,0.50
2023-05-23T13:59:32.223Z,0.50
2023-05-23T14:01:59.794Z,0.50
2023-05-23T14:04:27.187Z,0.60
2023-05-23T14:06:54.499Z,0.60
2023-05-23T14:09:23.217Z,0.50
2023-05-23T14:11:52.449Z,0.60
2023-05-23T14:14:20.103Z,0.60
2023-05-23T14:16:47.528Z,0.50
2023-05-23T14:19:14.959Z,0.70
2023-05-23T14:21:44.790Z,0.50
2023-05-23T14:24:12.511Z,0.50
2023-05-23T14:26:39.832Z,0.60
2023-05-23T14:29:07.844Z,0.50
2023-05-23T14:31:35.736Z,0.60
2023-05-23T14:34:03.506Z,0.50
2023-05-23T14:36:31.827Z,0.50
2023-05-23T14:38:59.155Z,0.50
2023-05-23T14:41:27.239Z,0.50
2023-05-23T14:43:54.611Z,0.50
2023-05-23T14:46:22.033Z,0.50
2023-05-23T14:48:49.487Z,0.60
2023-05-23T14:51:27.459Z,0.50
2023-05-23T14:54:04.509Z,0.50
2023-05-23T14:56:32.194Z,0.50
2023-05-23T14:59:01.089Z,0.50
2023-05-23T15:01:28.931Z,0.60
2023-05-23T15:03:56.403Z,0.60
2023-05-23T15:06:24.000Z,0.40
2023-05-23T15:08:52.344Z,0.50
2023-05-23T15:11:19.619Z,0.60
2023-05-23T15:13:46.927Z,0.60
2023-05-23T15:16:14.473Z,0.50
2023-05-23T15:18:42.330Z,0.50
2023-05-23T15:21:10.709Z,0.40
2023-05-23T15:23:38.290Z,0.50
2023-05-23T15:26:05.684Z,0.40
2023-05-23T15:28:33.025Z,0.40
2023-05-23T15:31:00.336Z,0.40
2023-05-23T15:33:27.718Z,0.50
2023-05-23T15:35:55.232Z,0.40
2023-05-23T15:38:22.704Z,0.40
2023-05-23T15:40:52.707Z,0.50
2023-05-23T15:43:20.706Z,0.50
2023-05-23T15:45:49.818Z,0.40
2023-05-23T15:48:17.432Z,0.50
2023-05-23T15:50:45.334Z,0.90
2023-05-23T15:53:12.745Z,0.80
2023-05-23T15:55:42.541Z,0.70
2023-05-23T15:58:11.050Z,1.00
2023-05-23T16:00:38.555Z,0.50
2023-05-23T16:03:06.052Z,0.50
2023-05-23T16:05:33.323Z,0.50
2023-05-23T16:08:00.968Z,0.50
2023-05-23T16:10:28.270Z,0.60
2023-05-23T16:12:55.674Z,0.40
2023-05-23T16:15:23.024Z,0.60
2023-05-23T16:17:50.464Z,0.50
2023-05-23T16:20:17.802Z,0.60
2023-05-23T16:22:46.003Z,0.50
2023-05-23T16:25:13.389Z,0.60
2023-05-23T16:27:40.692Z,0.60
2023-05-23T16:30:08.684Z,0.50
2023-05-23T16:32:36.060Z,0.60
2023-05-23T16:35:03.461Z,1.10
2023-05-23T16:37:30.809Z,0.50
2023-05-23T16:39:58.174Z,1.00
2023-05-23T16:42:25.480Z,0.80
2023-05-23T16:44:53.283Z,0.70
2023-05-23T16:47:20.573Z,0.60
2023-05-23T16:49:47.903Z,0.70
2023-05-23T16:52:15.281Z,0.70
2023-05-23T16:54:42.675Z,0.70
2023-05-23T16:57:10.963Z,0.60
2023-05-23T16:59:38.290Z,1.00
2023-05-23T17:02:05.909Z,1.10
2023-05-23T17:04:34.102Z,1.70
2023-05-23T17:07:01.671Z,6.50
2023-05-23T17:09:29.710Z,4.10
2023-05-23T17:11:57.026Z,1.00
2023-05-23T17:14:24.326Z,0.60
2023-05-23T17:16:51.697Z,0.50
2023-05-23T17:19:20.274Z,0.70
2023-05-23T17:21:48.487Z,0.70
2023-05-23T17:24:16.299Z,0.80
2023-05-23T17:26:43.585Z,0.40
2023-05-23T17:29:11.239Z,0.40
2023-05-23T17:31:38.691Z,0.50
2023-05-23T17:34:06.659Z,0.40
2023-05-23T17:36:35.152Z,1.20
2023-05-23T17:39:02.476Z,0.90
2023-05-23T17:41:29.861Z,1.10
2023-05-23T17:43:57.189Z,1.20
2023-05-23T17:46:24.712Z,1.30
2023-05-23T17:48:52.086Z,0.70
2023-05-23T17:51:19.413Z,1.00
2023-05-23T17:53:46.762Z,0.70
2023-05-23T17:56:14.060Z,0.90
2023-05-23T17:58:43.415Z,1.10
2023-05-23T18:01:11.887Z,1.50
2023-05-23T18:03:39.227Z,0.70
2023-05-23T18:06:07.021Z,0.60
2023-05-23T18:08:34.356Z,0.80
2023-05-23T18:11:02.603Z,0.70
2023-05-23T18:13:29.915Z,0.70
2023-05-23T18:15:57.255Z,0.70
2023-05-23T18:18:25.347Z,0.50
2023-05-23T18:20:52.741Z,0.60
2023-05-23T18:23:20.078Z,0.50
2023-05-23T18:25:48.568Z,0.40
2023-05-23T18:28:16.013Z,0.50
2023-05-23T18:30:43.531Z,0.50
2023-05-23T18:33:11.296Z,0.50
2023-05-23T18:35:38.664Z,0.60
2023-05-23T18:38:06.135Z,0.50
2023-05-23T18:40:33.602Z,0.60
2023-05-23T18:43:01.000Z,0.50
2023-05-23T18:45:28.400Z,0.50
2023-05-23T18:47:56.125Z,0.50
2023-05-23T18:50:23.832Z,0.60
2023-05-23T18:52:51.294Z,0.60
2023-05-23T18:55:20.327Z,0.70
2023-05-23T18:57:47.716Z,0.60
2023-05-23T19:00:15.172Z,0.80
2023-05-23T19:02:44.600Z,0.50
2023-05-23T19:05:12.626Z,0.60
2023-05-23T19:07:40.121Z,0.50
2023-05-23T19:10:08.071Z,0.60
2023-05-23T19:12:35.603Z,0.50
2023-05-23T19:15:03.048Z,0.70
2023-05-23T19:17:31.095Z,0.80
2023-05-23T19:19:58.483Z,0.60
2023-05-23T19:22:27.867Z,0.80
2023-05-23T19:24:58.999Z,0.60
2023-05-23T19:27:26.824Z,0.70
2023-05-23T19:29:54.079Z,0.70
2023-05-23T19:32:21.530Z,0.90
2023-05-23T19:34:49.154Z,1.00
2023-05-23T19:37:17.377Z,0.80
2023-05-23T19:39:46.214Z,0.90
2023-05-23T19:42:13.540Z,0.80
2023-05-23T19:44:40.866Z,0.90
2023-05-23T19:47:08.228Z,1.00
2023-05-23T19:49:35.916Z,0.70
2023-05-23T19:52:03.453Z,1.00
2023-05-23T19:54:30.860Z,1.10
2023-05-23T19:56:58.281Z,1.10
2023-05-23T19:59:25.618Z,0.70
2023-05-23T20:01:53.269Z,0.90
2023-05-23T20:04:24.080Z,0.80
2023-05-23T20:06:52.083Z,1.00
2023-05-23T20:09:19.427Z,1.10
2023-05-23T20:11:46.971Z,0.80
2023-05-23T20:14:14.276Z,0.90
2023-05-23T20:16:41.701Z,0.70
2023-05-23T20:19:09.964Z,0.70
2023-05-23T20:21:37.390Z,1.00
2023-05-23T20:24:05.092Z,0.80
2023-05-23T20:26:32.613Z,0.70
2023-05-23T20:29:00.031Z,0.70
2023-05-23T20:31:27.361Z,0.70
2023-05-23T20:33:54.826Z,0.70
2023-05-23T20:36:23.480Z,0.90
2023-05-23T20:38:52.572Z,0.80
2023-05-23T20:41:20.415Z,0.60
2023-05-23T20:43:48.514Z,0.70
2023-05-23T20:46:15.890Z,0.80
2023-05-23T20:48:43.415Z,0.60
2023-05-23T20:51:11.006Z,0.90
2023-05-23T20:53:38.287Z,0.80
2023-05-23T20:56:06.178Z,0.70
2023-05-23T20:58:33.877Z,0.80
2023-05-23T21:01:01.322Z,0.80
2023-05-23T21:03:29.395Z,1.40
2023-05-23T21:05:56.826Z,1.00
2023-05-23T21:08:24.177Z,0.80
2023-05-23T21:10:54.173Z,1.20
2023-05-23T21:13:22.102Z,0.90
2023-05-23T21:15:49.641Z,0.60
2023-05-23T21:18:17.057Z,0.80
2023-05-23T21:20:44.528Z,0.70
2023-05-23T21:23:12.086Z,0.70
2023-05-23T21:25:39.594Z,0.70
2023-05-23T21:28:06.912Z,1.10
2023-05-23T21:30:34.401Z,0.80
2023-05-23T21:33:01.811Z,1.30
2023-05-23T21:35:29.204Z,1.00
2023-05-23T21:37:56.585Z,1.10
2023-05-23T21:40:25.536Z,1.00
2023-05-23T21:42:52.799Z,0.80
2023-05-23T21:45:20.153Z,1.20
2023-05-23T21:47:47.531Z,0.80
2023-05-23T21:50:14.942Z,0.90
2023-05-23T21:52:42.260Z,0.80
2023-05-23T21:55:09.733Z,0.80
2023-05-23T21:57:37.055Z,1.00
2023-05-23T22:00:04.963Z,0.80
2023-05-23T22:02:40.915Z,1.30
2023-05-23T22:05:08.902Z,1.00
2023-05-23T22:07:36.968Z,0.90
2023-05-23T22:10:04.627Z,0.80
2023-05-23T22:12:32.304Z,0.90
2023-05-23T22:14:59.568Z,1.70
2023-05-23T22:17:26.993Z,0.90
2023-05-23T22:19:55.975Z,1.00
2023-05-23T22:22:23.417Z,1.00
2023-05-23T22:24:51.870Z,1.20
2023-05-23T22:27:19.762Z,1.20
2023-05-23T22:29:47.270Z,1.00
2023-05-23T22:32:14.530Z,0.80
2023-05-23T22:34:41.918Z,1.00
2023-05-23T22:37:09.727Z,0.70
2023-05-23T22:39:37.124Z,1.10
2023-05-23T22:42:05.090Z,0.80
2023-05-23T22:44:32.387Z,0.80
2023-05-23T22:47:00.083Z,0.80
2023-05-23T22:52:02.256Z,0.90
2023-05-23T22:54:29.574Z,1.00
2023-05-23T22:56:56.927Z,1.10
2023-05-23T22:59:24.228Z,1.00
2023-05-23T23:01:51.573Z,0.90
2023-05-23T23:04:23.585Z,1.10
2023-05-23T23:06:53.810Z,1.50
2023-05-23T23:09:21.338Z,1.10
2023-05-23T23:11:48.635Z,1.00
2023-05-23T23:14:15.935Z,0.80
2023-05-23T23:16:43.494Z,0.90
2023-05-23T23:19:10.890Z,0.80
2023-05-23T23:21:38.898Z,1.00
2023-05-23T23:24:08.001Z,0.70
2023-05-23T23:26:35.615Z,1.10
2023-05-23T23:29:03.406Z,1.10
2023-05-23T23:31:30.917Z,1.20
2023-05-23T23:33:58.233Z,0.90
2023-05-23T23:36:25.611Z,1.10
2023-05-23T23:38:52.939Z,0.70
2023-05-23T23:41:21.157Z,1.10
2023-05-23T23:43:48.494Z,1.00
2023-05-23T23:46:16.697Z,1.10
2023-05-23T23:48:44.199Z,1.30
2023-05-23T23:51:12.949Z,1.30
2023-05-23T23:53:40.422Z,1.30
2023-05-23T23:56:07.779Z,1.00
2023-05-23T23:58:35.820Z,1.50
